Greenwich, CT (06831)

6:42 AM EST on December 18, 2014 (GMT -0500)
Glenville | Change Station
CLOSE
Current Station
Personal Weather Station
Location: Greenwich, CT
Elevation: 250 ft
Nearby Weather Stations

Elev 250 ft 41.04 °N, 73.67 °W | Updated 3 seconds ago

Scattered Clouds
Scattered Clouds
35.8 °F
Feels Like 33 °F
N
3.1
Wind Variable Wind from NW
Gusts 7.8 mph

Today
High -- | Low -- °F
--% Chance of Precip.
Yesterday
High -- | Low -- °F
Precip. -- in
7:14 AM 4:27 PM
Waning Crescent, 15% visible
Pressure 29.90 in
Visibility 10.0 miles
Clouds Few 1200 ft
Scattered Clouds 9000 ft
Windchill 33 °F
Dew Point 26 °F
Humidity 67%
Rainfall 0.00 in
Snow Depth Not available.
UV 0 out of 12
Pollen .10 out of 12
Air Quality Not available.
Flu Activity Not available.
METAR KHPN 181056Z 30015G23KT 10SM FEW012 SCT090 02/M04 A2988 RMK AO2 PK WND 31031/1000 SLP124 T00221044

More Conditions Fewer Conditions

Pressure 29.90 in
Visibility 10.0 miles
Clouds Few 1200 ft
Scattered Clouds 9000 ft
Windchill 33 °F
Dew Point 26 °F
Humidity 67%
Rainfall 0.00 in
Snow Depth Not available.
UV 0 out of 12
Pollen .10 out of 12
Air Quality Not available.
Flu Activity Not available.
METAR KHPN 181056Z 30015G23KT 10SM FEW012 SCT090 02/M04 A2988 RMK AO2 PK WND 31031/1000 SLP124 T00221044

More Conditions Fewer Conditions

10-Day Weather Forecast

Almanac

Astronomy

Dec. 18, 2014 Rise Set
Actual Time
Civil Twilight
Nautical Twilight
Astronomical Twilight
Moon
Length of Visible Light
Length of Day
Tomorrow will be .
, % of the Moon is Illuminated

Today's Extremes

State Highs State Lows

Community

WunderPhotos

Upload Photos

1,778,919 photos uploaded!

WunderBlogs® & News

Nearby

Air Quality

  Air Quality AQ Index Pollutant
Not available.

Snow Depth

Station Depth Elevation

Earthquake Activity

City Distance Mag. Time & Date
Minimum magnitude displayed is 2.5.

Coastal Water Temperatures

Place Temperature

Nearby Weather Stations